Calhoun, GA (30701)

09:50 AM EDT del 01 Agosto 2015 (GMT -0400)
The Villages of Calhoun | | Change Station
CLOSE
Current Station
Stazione meteo personale
Location: Calhoun, GA
Altitudine: 676 ft
Stazioni meteo nelle vicinanze

Alt. 676 ft 34.50 °N, 84.93 °W | Updated 5 minutes ago

Sereno
Sereno
77.5 °F
Sembra 79 °F
N
1.0
Vento Variabile Vento da NO
Gusts 3.0 mph

Oggi
Massima -- | Minima -- °F
--% Possibilità di precip.
Ieri
Massima -- | Minima -- °F
Precip. -- in
6:50 AM 8:41 PM
Luna piena, 98% visible
Pressione 30.01 in
Visibilità 10.0 miglia
Nuvole Sereno
Indice di calore 79 °F
Punto di rugiada 66 °F
Umidità 67%
Piovosità 0.00 in
Spessore del manto nevoso Non disponibile.
Raggi UV 4 fuori da 12
Polline 4.90 fuori da 12
Qualità dell'aria Non disponibile.
Flu Activity Non disponibile.
METAR KDNN 011335Z AUTO 36007KT 326V026 10SM CLR 25/17 A3001 RMK AO2

More Conditions Fewer Conditions

Pressione 30.01 in
Visibilità 10.0 miglia
Nuvole Sereno
Indice di calore 79 °F
Punto di rugiada 66 °F
Umidità 67%
Piovosità 0.00 in
Spessore del manto nevoso Non disponibile.
Raggi UV 4 fuori da 12
Polline 4.90 fuori da 12
Qualità dell'aria Non disponibile.
Flu Activity Non disponibile.
METAR KDNN 011335Z AUTO 36007KT 326V026 10SM CLR 25/17 A3001 RMK AO2

More Conditions Fewer Conditions

10-Day Weather Forecast

×

Almanac

Astronomia

Aug. 01, 2015 Alba Tramonto
Ora attuale
Crepuscolo civile
Crepuscolo nautico
Crepuscolo astronomico
Luna
Estensione della luce visibile
Lunghezza del giorno
Tomorrow will be .
, % of the Moon is Illuminated

Gli estremi di oggi

State Highs State Lows

Community

WunderPhotos

Upload Photos

1,842,940 foto caricate!

WunderBlogs® & News

Nearby

Qualità dell'aria

  Qualità dell'aria Indice AQ Inquinante
Not available.

Profondità neve

Stazione Profondità Altitudine

Attività sismica

Città  Distanza Mag. Data & Ora
Minimo Magnitudo Mostrato è 2.5.

Temperature delle acque costiere

Località Temperatura

Stations

Stazioni meteo nelle vicinanze

Ubicazione della stazione Temp. Raffreddamento del vento Punto di rugiada Umidità Vento Precip. Alt. Aggiornato Tipo